Granby, CO (80446)

7:28 PM MDT on August 22, 2014 (GMT -0600)
Granby Ranch | Change Station
CLOSE
Current Station
Personal Weather Station
Location: Granby, CO
Elevation: 8360 ft
Nearby Weather Stations

Elev 8360 ft 40.05 °N, 105.91 °W | Updated 3 minutes ago

Scattered Clouds
Scattered Clouds
58.7 °F
Feels Like 58.7 °F
N
0.0
Wind Variable Wind from North
Gusts 0.0 mph

Today
High -- | Low -- °F
--% Chance of Precip.
Yesterday
High -- | Low -- °F
Precip. -- in
6:21 AM 7:50 PM
Waning Crescent, 6% visible
Pressure 30.13 in
Visibility 10.0 miles
Clouds Scattered Clouds 5500 ft
Dew Point 47 °F
Humidity 66%
Rainfall 0.02 in
Snow Depth 0 in , 0 in , 0 in
UV 0 out of 12
Pollen 9.60 out of 12
Air Quality Not available.
Flu Activity Not available.
METAR K20V 230117Z AUTO 00000KT 10SM SCT055 17/08 A3013 RMK AO2 LTG DSNT SW

More Conditions Fewer Conditions

Pressure 30.13 in
Visibility 10.0 miles
Clouds Scattered Clouds 5500 ft
Dew Point 47 °F
Humidity 66%
Rainfall 0.02 in
Snow Depth 0 in , 0 in , 0 in
UV 0 out of 12
Pollen 9.60 out of 12
Air Quality Not available.
Flu Activity Not available.
METAR K20V 230117Z AUTO 00000KT 10SM SCT055 17/08 A3013 RMK AO2 LTG DSNT SW

More Conditions Fewer Conditions

Nowcast | as of 5:34 PM MDT on August 22, 2014

Scattered showers and isolated thunderstorms will continue across the mountains and High Mountain valleys through 8 PM. Brief moderate rain will be possible with the stronger storms. Dangerous cloud to ground lightning will also be possible with any of the storms.

×

10-Day Weather Forecast

Almanac

Astronomy

Aug. 22, 2014 Rise Set
Actual Time 6:21 AM MDT 7:50 PM MDT
Civil Twilight 5:53 AM MDT 8:18 PM MDT
Nautical Twilight 5:18 AM MDT 8:52 PM MDT
Astronomical Twilight 4:42 AM MDT 9:28 PM MDT
Moon 3:46 AM MDT (8/22) 6:00 PM MDT (8/22)
Length of Visible Light 14h 25m
Length of Day
13h 28m
Tomorrow will be 2m 26s shorter.
Waning Crescent, 6% of the Moon is Illuminated
Today
Waning Crescent
Aug 25
New
Sep 2
First Quarter
Sep 8
Full
Sep 15
Last Quarter

Today's Extremes

State Highs State Lows

Community

WunderPhotos

Upload Photos

1,746,337 photos uploaded!

WunderBlogs® & News

Nearby

Snow Depth

Station Depth Elevation
University Camp 0 in 10300 ft
Niwot 0 in 9910 ft
Wild Basin 0 in 9560 ft
Berthoud Summit 0 in 11300 ft
Middle Fork Camp 0 in 9000 ft

Earthquake Activity

City Distance Mag. Time & Date
No recent earthquake activity has been reported nearby.
Minimum magnitude displayed is 2.5.

Coastal Water Temperatures

Place Temperature
No Stations Reporting

Nearby Weather Stations